createdAt,value
2023-04-17T00:02:20.424Z,7.69
2023-04-17T00:04:53.445Z,7.69
2023-04-17T00:07:25.038Z,7.68
2023-04-17T00:09:56.674Z,7.70
2023-04-17T00:12:26.639Z,7.75
2023-04-17T00:14:57.612Z,7.81
2023-04-17T00:17:27.936Z,7.86
2023-04-17T00:19:58.667Z,7.86
2023-04-17T00:22:29.575Z,7.89
2023-04-17T00:25:01.069Z,7.92
2023-04-17T00:27:32.789Z,7.94
2023-04-17T00:30:05.928Z,7.97
2023-04-17T00:32:38.281Z,7.96
2023-04-17T00:35:10.833Z,7.95
2023-04-17T00:37:41.870Z,7.94
2023-04-17T00:40:13.015Z,7.92
2023-04-17T00:42:44.310Z,7.91
2023-04-17T00:45:14.806Z,7.91
2023-04-17T00:47:46.416Z,7.89
2023-04-17T00:50:17.699Z,7.89
2023-04-17T00:52:52.038Z,7.88
2023-04-17T00:55:29.302Z,7.87
2023-04-17T00:58:03.593Z,7.83
2023-04-17T01:00:40.053Z,7.81
2023-04-17T01:03:17.691Z,7.79
2023-04-17T01:06:00.114Z,7.79
2023-04-17T01:08:43.190Z,7.79
2023-04-17T01:11:15.571Z,7.80
2023-04-17T01:13:52.168Z,7.77
2023-04-17T01:16:26.589Z,7.74
2023-04-17T01:19:02.676Z,7.74
2023-04-17T01:21:40.741Z,7.77
2023-04-17T01:24:24.804Z,7.77
2023-04-17T01:27:06.341Z,7.78
2023-04-17T01:29:49.133Z,7.78
2023-04-17T01:32:32.142Z,7.78
2023-04-17T01:35:14.262Z,7.80
2023-04-17T01:37:46.849Z,7.82
2023-04-17T01:40:19.135Z,7.81
2023-04-17T01:42:51.578Z,7.83
2023-04-17T01:45:23.533Z,7.82
2023-04-17T01:47:54.874Z,7.77
2023-04-17T01:50:24.863Z,7.74
2023-04-17T01:52:56.221Z,7.71
2023-04-17T01:55:28.116Z,7.69
2023-04-17T01:57:59.330Z,7.71
2023-04-17T02:00:30.593Z,7.72
2023-04-17T02:03:02.687Z,7.72
2023-04-17T02:05:32.978Z,7.71
2023-04-17T02:08:03.289Z,7.70
2023-04-17T02:10:33.457Z,7.72
2023-04-17T02:13:07.712Z,7.74
2023-04-17T02:15:39.129Z,7.76
2023-04-17T02:18:09.850Z,7.78
2023-04-17T02:20:40.587Z,7.79
2023-04-17T02:23:17.388Z,7.83
2023-04-17T02:25:54.405Z,7.86
2023-04-17T02:28:28.436Z,7.83
2023-04-17T02:31:03.248Z,7.80
2023-04-17T02:33:35.256Z,7.82
2023-04-17T02:36:08.646Z,7.78
2023-04-17T02:38:40.111Z,7.76
2023-04-17T02:41:10.906Z,7.73
2023-04-17T02:43:40.676Z,7.66
2023-04-17T02:46:10.113Z,7.60
2023-04-17T02:48:39.720Z,7.56
2023-04-17T02:51:09.096Z,7.53
2023-04-17T02:53:39.078Z,7.47
2023-04-17T02:56:12.584Z,7.43
2023-04-17T02:58:46.806Z,7.42
2023-04-17T03:01:20.502Z,7.41
2023-04-17T03:03:55.334Z,7.39
2023-04-17T03:06:29.320Z,7.35
2023-04-17T03:09:02.739Z,7.31
2023-04-17T03:11:36.110Z,7.27
2023-04-17T03:14:10.756Z,7.27
2023-04-17T03:16:45.487Z,7.28
2023-04-17T03:19:19.390Z,7.33
2023-04-17T03:21:53.942Z,7.37
2023-04-17T03:24:28.234Z,7.38
2023-04-17T03:27:01.672Z,7.37
2023-04-17T03:29:35.361Z,7.37
2023-04-17T03:32:09.848Z,7.33
2023-04-17T03:34:45.360Z,7.29
2023-04-17T03:37:19.322Z,7.23
2023-04-17T03:39:53.133Z,7.19
2023-04-17T03:42:31.219Z,7.19
2023-04-17T03:45:22.035Z,7.24
2023-04-17T03:48:06.593Z,7.25
2023-04-17T03:50:50.388Z,7.24
2023-04-17T03:53:28.652Z,7.20
2023-04-17T03:56:06.161Z,7.23
2023-04-17T03:58:48.430Z,7.21
2023-04-17T04:01:31.373Z,7.23
2023-04-17T04:04:09.958Z,7.23
2023-04-17T04:06:44.500Z,7.26
2023-04-17T04:09:20.252Z,7.27
2023-04-17T04:44:27.886Z,7.34
2023-04-17T04:46:57.486Z,7.30
2023-04-17T04:49:27.313Z,7.25
2023-04-17T04:51:57.774Z,7.19
2023-04-17T04:54:27.988Z,7.14
2023-04-17T04:56:58.199Z,7.11
2023-04-17T04:59:28.392Z,7.11
2023-04-17T05:01:59.159Z,7.12
2023-04-17T05:04:30.111Z,7.14
2023-04-17T05:07:00.390Z,7.20
2023-04-17T05:09:34.502Z,7.26
2023-04-17T05:12:07.573Z,7.30
2023-04-17T05:14:40.157Z,7.29
2023-04-17T05:17:15.659Z,7.27
2023-04-17T05:19:49.903Z,7.28
2023-04-17T05:22:25.219Z,7.31
2023-04-17T05:24:59.640Z,7.39
2023-04-17T05:27:34.189Z,7.39
2023-04-17T05:30:08.648Z,7.37
2023-04-17T05:32:43.852Z,7.43
2023-04-17T05:35:20.590Z,7.53
2023-04-17T05:37:59.299Z,7.55
2023-04-17T05:40:34.816Z,7.57
2023-04-17T05:43:12.898Z,7.60
2023-04-17T05:45:49.446Z,7.66
2023-04-17T05:48:25.431Z,7.71
2023-04-17T05:50:59.904Z,7.70
2023-04-17T05:53:35.124Z,7.73
2023-04-17T05:56:11.710Z,7.82
2023-04-17T05:58:45.722Z,7.97
2023-04-17T06:02:11.713Z,8.10
2023-04-17T06:05:01.359Z,8.21
2023-04-17T06:07:41.799Z,8.24
2023-04-17T06:10:19.537Z,8.23
2023-04-17T06:12:53.491Z,8.29
2023-04-17T06:15:26.558Z,8.34
2023-04-17T06:17:58.209Z,8.38
2023-04-17T06:20:29.524Z,8.48
2023-04-17T06:23:07.298Z,8.47
2023-04-17T06:25:53.162Z,8.50
2023-04-17T06:36:49.518Z,8.51
2023-04-17T06:39:57.106Z,8.47
2023-04-17T06:42:35.942Z,8.50
2023-04-17T06:45:11.808Z,8.52
2023-04-17T06:47:48.142Z,8.59
2023-04-17T06:50:17.940Z,8.61
2023-04-17T06:52:46.796Z,8.67
2023-04-17T06:55:16.056Z,8.78
2023-04-17T06:57:45.877Z,8.89
2023-04-17T07:00:16.600Z,8.93
2023-04-17T07:02:54.451Z,8.97
2023-04-17T07:05:25.173Z,8.94
2023-04-17T07:07:55.732Z,9.04
2023-04-17T07:10:24.660Z,9.16
2023-04-17T07:12:53.855Z,9.24
2023-04-17T07:15:23.297Z,9.27
2023-04-17T07:17:55.906Z,9.29
2023-04-17T07:20:25.234Z,9.33
2023-04-17T07:22:56.047Z,9.44
2023-04-17T07:25:27.402Z,9.53
2023-04-17T07:27:57.251Z,9.55
2023-04-17T07:30:26.453Z,9.55
2023-04-17T07:32:55.051Z,9.59
2023-04-17T07:35:24.073Z,9.64
2023-04-17T07:37:58.500Z,9.74
2023-04-17T07:40:27.679Z,9.86
2023-04-17T07:43:00.295Z,9.97
2023-04-17T07:45:29.593Z,10.08
2023-04-17T07:47:59.520Z,10.23
2023-04-17T07:50:28.740Z,10.37
2023-04-17T07:52:58.683Z,10.43
2023-04-17T07:55:27.964Z,10.44
2023-04-17T07:57:59.125Z,10.42
2023-04-17T08:00:28.008Z,10.35
2023-04-17T08:02:59.318Z,10.37
2023-04-17T08:05:30.197Z,10.41
2023-04-17T08:08:00.819Z,10.50
2023-04-17T08:10:31.018Z,10.54
2023-04-17T08:13:02.840Z,10.52
2023-04-17T08:15:32.936Z,10.52
2023-04-17T08:18:03.622Z,10.56
2023-04-17T08:20:34.643Z,10.61
2023-04-17T08:23:06.859Z,10.59
2023-04-17T08:25:36.675Z,10.54
2023-04-17T08:28:07.687Z,10.52
2023-04-17T08:30:37.357Z,10.55
2023-04-17T08:33:08.826Z,10.62
2023-04-17T08:35:45.097Z,10.65
2023-04-17T08:38:15.413Z,10.60
2023-04-17T08:40:49.309Z,10.68
2023-04-17T08:43:21.640Z,10.72
2023-04-17T08:45:54.370Z,10.70
2023-04-17T08:48:24.794Z,10.70
2023-04-17T08:50:57.865Z,10.70
2023-04-17T08:53:45.596Z,10.74
2023-04-17T08:56:14.364Z,10.90
2023-04-17T08:58:43.847Z,11.11
2023-04-17T09:01:18.577Z,11.30
2023-04-17T09:03:53.034Z,11.55
2023-04-17T09:06:24.640Z,11.74
2023-04-17T09:09:05.555Z,11.77
2023-04-17T09:11:37.535Z,11.77
2023-04-17T09:14:08.239Z,11.97
2023-04-17T09:16:55.349Z,12.03
2023-04-17T09:19:25.773Z,11.93
2023-04-17T09:21:57.334Z,11.81
2023-04-17T09:24:39.713Z,11.79
2023-04-17T09:27:23.361Z,11.72
2023-04-17T09:30:00.216Z,11.67
2023-04-17T09:32:32.748Z,11.79
2023-04-17T09:35:15.801Z,11.86
2023-04-17T09:38:10.006Z,11.92
2023-04-17T09:40:56.491Z,11.98
2023-04-17T09:43:54.279Z,12.05
2023-04-17T09:46:41.479Z,12.23
2023-04-17T09:49:24.562Z,12.39
2023-04-17T09:52:06.800Z,12.44
2023-04-17T09:54:57.198Z,12.36
2023-04-17T09:57:44.509Z,12.21
2023-04-17T10:00:33.983Z,12.11
2023-04-17T10:03:23.119Z,11.99
2023-04-17T10:06:14.408Z,11.90
2023-04-17T10:08:57.356Z,11.94
2023-04-17T10:11:54.807Z,12.12
2023-04-17T10:14:46.260Z,12.45
2023-04-17T10:17:47.415Z,12.61
2023-04-17T10:20:36.150Z,12.76
2023-04-17T10:23:58.218Z,12.99
2023-04-17T10:26:46.427Z,13.35
2023-04-17T10:30:27.944Z,13.79
2023-04-17T10:33:33.140Z,13.82
2023-04-17T10:36:40.448Z,13.97
2023-04-17T10:39:16.387Z,13.98
2023-04-17T10:42:07.195Z,14.06
2023-04-17T10:44:42.313Z,13.99
2023-04-17T10:47:28.118Z,13.89
2023-04-17T10:53:50.379Z,13.66
2023-04-17T10:56:46.805Z,13.56
2023-04-17T10:59:39.122Z,13.70
2023-04-17T11:03:39.512Z,14.00
2023-04-17T11:14:29.248Z,14.59
2023-04-17T11:18:09.528Z,14.33
2023-04-17T11:21:40.107Z,14.17
2023-04-17T11:24:56.952Z,14.05
2023-04-17T11:27:57.141Z,14.02
2023-04-17T11:30:38.240Z,14.09
2023-04-17T11:33:09.518Z,14.07
2023-04-17T11:35:40.335Z,14.03
2023-04-17T11:38:13.256Z,13.99
2023-04-17T11:40:46.769Z,13.91
2023-04-17T11:43:17.034Z,13.80
2023-04-17T11:45:47.662Z,13.61
2023-04-17T11:48:20.149Z,13.44
2023-04-17T11:50:48.780Z,13.32
2023-04-17T11:53:18.753Z,13.22
2023-04-17T11:55:48.221Z,13.10
2023-04-17T11:58:17.001Z,13.01
2023-04-17T12:01:45.115Z,12.91
2023-04-17T12:40:18.736Z,12.94
2023-04-17T15:46:17.662Z,12.32
2023-04-17T15:49:21.682Z,12.29
2023-04-17T15:56:49.000Z,12.28
2023-04-17T16:21:32.285Z,12.16
2023-04-17T16:24:57.638Z,12.13
2023-04-17T16:27:52.605Z,12.11
2023-04-17T16:30:37.270Z,12.07
2023-04-17T16:33:43.854Z,12.03
2023-04-17T16:36:32.816Z,12.02
2023-04-17T16:39:53.570Z,12.01
2023-04-17T16:43:48.153Z,11.97
2023-04-17T16:54:25.904Z,11.60
2023-04-17T16:56:59.533Z,11.52
2023-04-17T16:59:30.853Z,11.45
2023-04-17T17:02:02.533Z,11.39
2023-04-17T17:11:59.572Z,11.29
2023-04-17T17:19:31.013Z,11.10
2023-04-17T17:22:37.765Z,11.00
2023-04-17T17:29:17.483Z,10.84
2023-04-17T17:32:02.345Z,10.78
2023-04-17T17:34:52.579Z,10.71
2023-04-17T19:52:56.643Z,9.57
2023-04-17T20:00:20.232Z,9.51
2023-04-17T20:04:05.564Z,9.50
2023-04-17T20:12:03.259Z,9.40
2023-04-17T21:01:56.026Z,9.12
2023-04-17T21:16:12.268Z,8.95
2023-04-17T21:23:11.734Z,8.81
2023-04-17T21:31:09.741Z,8.72
2023-04-17T21:56:26.198Z,8.43
2023-04-17T22:01:05.814Z,8.43
2023-04-17T22:07:34.198Z,8.38
2023-04-17T22:11:23.261Z,8.32
2023-04-17T22:16:34.689Z,8.27
2023-04-17T22:39:17.789Z,7.94
2023-04-17T22:42:49.471Z,7.87
2023-04-17T22:46:17.892Z,7.76
2023-04-17T22:50:03.362Z,7.72
2023-04-17T23:58:45.232Z,7.51
